Time;durP1;ratioP1;P1;durP2;ratioP2;P2;SDS_P1;SDS_P2;PMS_P1;PMS_P2;Temp;Humidity;BMP_temperature;BMP_pressure;BME280_temperature;BME280_humidity;BME280_pressure;Samples;Min_cycle;Max_cycle;Signal;HPM_P1;HPM_P2
2021/07/23 00:01:21;;;;;;;11.05;5.50;;;19.60;99.90;;;;;;5014855;28;20042;-72
2021/07/23 00:03:48;;;;;;;9.25;5.65;;;19.50;99.90;;;;;;5016179;28;20034;-72
2021/07/23 00:06:14;;;;;;;9.80;6.03;;;19.40;99.90;;;;;;5015636;28;20038;-72
2021/07/23 00:08:40;;;;;;;10.73;6.22;;;19.30;99.90;;;;;;5015817;28;20026;-72
2021/07/23 00:11:06;;;;;;;9.35;6.18;;;19.20;99.90;;;;;;5015821;28;20174;-72
2021/07/23 00:13:32;;;;;;;10.13;5.93;;;19.10;99.90;;;;;;5014690;28;20030;-72
2021/07/23 00:15:57;;;;;;;14.05;5.88;;;19.00;99.90;;;;;;5014487;28;20065;-73
2021/07/23 00:18:23;;;;;;;10.73;6.03;;;19.00;99.90;;;;;;5016053;28;20390;-72
2021/07/23 00:20:49;;;;;;;11.18;5.93;;;19.10;99.90;;;;;;4997937;28;20045;-72
2021/07/23 00:23:15;;;;;;;12.30;6.03;;;19.00;99.90;;;;;;5014288;28;20042;-73
2021/07/23 00:25:41;;;;;;;15.23;6.47;;;18.90;99.90;;;;;;5015395;28;20045;-73
2021/07/23 00:28:06;;;;;;;10.30;6.10;;;18.80;99.90;;;;;;5015382;28;20033;-72
2021/07/23 00:30:32;;;;;;;9.45;5.57;;;18.60;99.90;;;;;;5015300;28;20395;-72
2021/07/23 00:33:00;;;;;;;11.07;6.28;;;18.60;99.90;;;;;;5015464;28;20117;-72
2021/07/23 00:35:27;;;;;;;11.05;6.15;;;18.70;99.90;;;;;;5015434;28;20030;-72
2021/07/23 00:37:53;;;;;;;12.15;6.00;;;18.80;99.90;;;;;;5015230;28;20133;-72
2021/07/23 00:40:19;;;;;;;11.65;6.30;;;18.70;99.90;;;;;;5015276;28;20450;-73
2021/07/23 00:42:45;;;;;;;10.80;6.60;;;18.50;99.90;;;;;;5015472;28;20029;-72
2021/07/23 00:45:11;;;;;;;11.32;6.38;;;18.60;99.90;;;;;;5014913;28;20088;-73
2021/07/23 00:47:41;;;;;;;11.93;7.00;;;18.30;99.90;;;;;;5013939;28;20026;-72
2021/07/23 00:50:08;;;;;;;9.07;5.97;;;18.30;99.90;;;;;;5014530;28;20026;-72
2021/07/23 00:52:34;;;;;;;13.45;7.25;;;18.40;99.90;;;;;;5014972;28;20037;-72
2021/07/23 00:55:01;;;;;;;12.35;5.95;;;18.50;99.90;;;;;;5013855;28;20038;-72
2021/07/23 00:57:27;;;;;;;10.02;6.10;;;18.40;99.90;;;;;;5012910;28;20501;-72
2021/07/23 00:59:53;;;;;;;10.18;6.75;;;18.40;99.90;;;;;;5013507;28;20442;-72
2021/07/23 01:02:19;;;;;;;11.15;6.57;;;18.50;99.90;;;;;;5014828;28;20109;-72
2021/07/23 01:04:45;;;;;;;12.95;6.78;;;18.30;99.90;;;;;;5014909;28;20138;-72
2021/07/23 01:07:13;;;;;;;13.50;6.47;;;18.20;99.90;;;;;;5014479;28;20406;-72
2021/07/23 01:09:39;;;;;;;10.13;6.35;;;18.40;99.90;;;;;;5014675;28;20040;-72
2021/07/23 01:12:07;;;;;;;16.38;6.80;;;18.50;99.90;;;;;;5013207;28;20026;-72
2021/07/23 01:14:34;;;;;;;10.18;6.20;;;18.40;99.90;;;;;;5029520;28;20437;-72
2021/07/23 01:17:01;;;;;;;12.48;6.55;;;18.40;99.90;;;;;;5013770;28;20487;-72
2021/07/23 01:19:31;;;;;;;14.52;6.40;;;18.40;99.90;;;;;;5014396;28;20523;-72
2021/07/23 01:21:59;;;;;;;11.82;7.35;;;18.40;99.90;;;;;;5013323;28;20037;-72
2021/07/23 01:24:25;;;;;;;11.85;7.32;;;18.30;99.90;;;;;;5012884;28;20045;-72
2021/07/23 01:26:53;;;;;;;11.98;6.25;;;18.20;99.90;;;;;;5014180;28;20049;-72
2021/07/23 01:29:19;;;;;;;11.45;5.88;;;18.10;99.90;;;;;;5012847;28;20026;-72
2021/07/23 01:31:44;;;;;;;12.63;6.63;;;18.10;99.90;;;;;;5014237;28;20503;-72
2021/07/23 01:34:13;;;;;;;14.15;7.05;;;18.00;99.90;;;;;;5014537;28;20595;-72
2021/07/23 01:36:38;;;;;;;11.13;5.93;;;18.00;99.90;;;;;;5014381;28;20026;-72
2021/07/23 01:39:05;;;;;;;14.18;7.40;;;18.00;99.90;;;;;;5013251;28;20036;-72
2021/07/23 01:41:33;;;;;;;13.32;6.95;;;18.00;99.90;;;;;;5012615;28;20120;-72
2021/07/23 01:43:59;;;;;;;12.63;6.78;;;17.90;99.90;;;;;;5013808;28;20046;-72
2021/07/23 01:46:24;;;;;;;12.65;7.00;;;17.90;99.90;;;;;;5014316;28;20045;-72
2021/07/23 01:48:50;;;;;;;13.32;6.65;;;17.90;99.90;;;;;;5012755;28;20057;-72
2021/07/23 01:51:16;;;;;;;12.23;6.30;;;17.80;99.90;;;;;;5012723;28;20068;-72
2021/07/23 01:53:42;;;;;;;18.55;7.40;;;17.70;99.90;;;;;;5013858;28;20038;-72
2021/07/23 01:56:07;;;;;;;11.57;6.22;;;17.70;99.90;;;;;;5013833;28;20034;-72
2021/07/23 01:58:34;;;;;;;12.77;7.13;;;17.60;99.90;;;;;;5012604;28;20038;-72
2021/07/23 02:01:00;;;;;;;11.50;6.57;;;17.70;99.90;;;;;;5013893;28;20041;-72
2021/07/23 02:03:26;;;;;;;11.23;6.15;;;17.60;99.90;;;;;;5013461;28;20030;-72
2021/07/23 02:05:54;;;;;;;11.15;6.20;;;17.70;99.90;;;;;;5013632;28;20433;-74
2021/07/23 02:08:20;;;;;;;14.20;6.85;;;17.60;99.90;;;;;;5028328;28;20022;-71
2021/07/23 02:10:46;;;;;;;13.70;6.97;;;17.50;99.90;;;;;;5012541;28;20095;-71
2021/07/23 02:13:11;;;;;;;13.73;6.38;;;17.40;99.90;;;;;;5013456;28;20463;-71
2021/07/23 02:15:37;;;;;;;12.93;6.55;;;17.50;99.90;;;;;;5013519;28;20034;-72
2021/07/23 02:18:03;;;;;;;15.20;7.28;;;17.50;99.90;;;;;;5012093;28;20095;-71
2021/07/23 02:20:29;;;;;;;15.65;6.95;;;17.60;99.90;;;;;;5013430;28;20026;-71
2021/07/23 02:22:55;;;;;;;12.60;6.68;;;17.60;99.90;;;;;;5012367;28;20157;-72
2021/07/23 02:25:21;;;;;;;10.20;6.10;;;17.60;99.90;;;;;;5012881;28;20438;-73
2021/07/23 02:27:47;;;;;;;13.65;7.18;;;17.70;99.90;;;;;;5012125;28;20128;-72
2021/07/23 02:30:13;;;;;;;12.05;6.18;;;17.60;99.90;;;;;;5013523;28;20463;-72
2021/07/23 02:32:39;;;;;;;11.20;6.53;;;17.60;99.90;;;;;;5012922;28;20419;-73
2021/07/23 02:35:05;;;;;;;10.63;6.20;;;17.50;99.90;;;;;;5013000;28;20029;-72
2021/07/23 02:37:31;;;;;;;12.80;6.80;;;17.40;99.90;;;;;;5012749;28;20040;-73
2021/07/23 02:39:57;;;;;;;10.90;6.45;;;17.50;99.90;;;;;;5013358;28;20034;-73
2021/07/23 02:42:22;;;;;;;11.90;6.07;;;17.60;99.90;;;;;;5012812;28;20029;-72
2021/07/23 02:44:48;;;;;;;14.80;7.75;;;17.50;99.90;;;;;;5012641;28;20056;-73
2021/07/23 02:47:14;;;;;;;12.55;6.72;;;17.60;99.90;;;;;;5011564;28;20485;-72
2021/07/23 02:49:39;;;;;;;10.80;6.63;;;17.40;99.90;;;;;;5012782;28;20030;-73
2021/07/23 02:52:06;;;;;;;13.98;6.55;;;17.50;99.90;;;;;;5011528;28;20065;-72
2021/07/23 02:54:31;;;;;;;11.98;6.78;;;17.40;99.90;;;;;;5012784;28;20133;-72
2021/07/23 02:56:57;;;;;;;11.23;6.80;;;17.20;99.90;;;;;;5013079;28;20047;-73
2021/07/23 02:59:22;;;;;;;15.73;7.53;;;17.20;99.90;;;;;;4995366;28;20033;-72
2021/07/23 03:01:48;;;;;;;11.68;6.70;;;17.10;99.90;;;;;;5012720;28;20148;-73
2021/07/23 03:04:14;;;;;;;16.80;7.43;;;17.00;99.90;;;;;;5012496;28;20041;-73
2021/07/23 03:06:40;;;;;;;13.05;7.28;;;16.80;99.90;;;;;;5011296;28;20036;-72
2021/07/23 03:09:05;;;;;;;13.10;7.40;;;16.70;99.90;;;;;;5012548;28;20156;-73
2021/07/23 03:11:31;;;;;;;12.75;6.78;;;16.70;99.90;;;;;;5012410;28;20474;-73
2021/07/23 03:13:58;;;;;;;13.35;6.93;;;16.70;99.90;;;;;;5012527;28;20034;-72
2021/07/23 03:16:24;;;;;;;13.80;7.35;;;16.80;99.90;;;;;;5012418;28;20041;-73
2021/07/23 03:18:50;;;;;;;13.85;7.03;;;16.80;99.90;;;;;;5011709;28;20376;-72
2021/07/23 03:21:21;;;;;;;13.75;6.85;;;16.80;99.90;;;;;;5012342;28;20113;-73
2021/07/23 03:23:48;;;;;;;12.75;6.28;;;16.80;99.90;;;;;;5011231;28;20026;-73
2021/07/23 03:26:14;;;;;;;10.90;6.47;;;16.90;99.90;;;;;;5010957;28;20113;-73
2021/07/23 03:28:39;;;;;;;10.75;6.75;;;16.90;99.90;;;;;;5012224;28;20551;-72
2021/07/23 03:31:12;;;;;;;13.15;7.72;;;16.90;99.90;;;;;;5011018;28;20104;-73
2021/07/23 03:33:39;;;;;;;12.20;6.53;;;17.00;99.90;;;;;;5011185;28;20045;-73
2021/07/23 03:36:05;;;;;;;11.50;6.15;;;17.00;99.90;;;;;;5012595;28;20038;-73
2021/07/23 03:38:31;;;;;;;13.70;7.30;;;17.00;99.90;;;;;;5011187;28;20042;-73
2021/07/23 03:40:56;;;;;;;12.15;6.47;;;16.90;99.90;;;;;;5011486;28;20088;-72
2021/07/23 03:43:22;;;;;;;13.63;6.90;;;16.80;99.90;;;;;;5011955;28;20056;-73
2021/07/23 03:45:48;;;;;;;12.48;6.57;;;16.70;99.90;;;;;;5011916;28;20040;-73
2021/07/23 03:48:13;;;;;;;15.18;7.18;;;16.70;99.90;;;;;;5010890;28;20029;-73
2021/07/23 03:50:39;;;;;;;13.13;7.45;;;16.70;99.90;;;;;;5011995;28;20190;-73
2021/07/23 03:53:05;;;;;;;12.43;7.57;;;16.60;99.90;;;;;;5011163;28;20029;-73
2021/07/23 03:55:31;;;;;;;14.15;7.38;;;16.60;99.90;;;;;;5010983;28;20416;-73
2021/07/23 03:57:57;;;;;;;15.20;7.90;;;16.50;99.90;;;;;;5012006;28;20034;-73
2021/07/23 04:00:23;;;;;;;14.77;7.85;;;16.60;99.90;;;;;;5012212;28;20502;-73
2021/07/23 04:02:49;;;;;;;11.15;7.10;;;16.60;99.90;;;;;;5027271;28;20087;-73
2021/07/23 04:05:15;;;;;;;10.18;6.75;;;16.60;99.90;;;;;;5010618;28;20418;-73
2021/07/23 04:07:40;;;;;;;16.15;7.95;;;16.60;99.90;;;;;;5010651;28;20858;-73
2021/07/23 04:10:07;;;;;;;13.40;7.25;;;16.60;99.90;;;;;;5011862;28;20041;-73
2021/07/23 04:12:32;;;;;;;15.15;7.57;;;16.60;99.90;;;;;;5010947;28;20084;-73
2021/07/23 04:14:58;;;;;;;14.05;7.40;;;16.50;99.90;;;;;;5011936;28;20514;-73
2021/07/23 04:17:24;;;;;;;14.07;7.85;;;16.50;99.90;;;;;;5011808;28;20113;-73
2021/07/23 04:19:49;;;;;;;14.18;6.95;;;16.60;99.90;;;;;;5012053;28;20037;-72
2021/07/23 04:22:18;;;;;;;11.73;7.13;;;16.50;99.90;;;;;;5011965;28;20034;-73
2021/07/23 04:24:44;;;;;;;14.30;7.60;;;16.60;99.90;;;;;;5011350;28;20033;-73
2021/07/23 04:27:09;;;;;;;15.75;7.50;;;16.70;99.90;;;;;;5012057;28;20034;-73
2021/07/23 04:29:35;;;;;;;15.68;7.35;;;16.70;99.90;;;;;;5012173;28;20374;-73
2021/07/23 04:32:01;;;;;;;15.80;8.00;;;16.80;99.90;;;;;;5014215;28;20034;-73
2021/07/23 04:34:27;;;;;;;14.90;7.35;;;16.90;99.90;;;;;;5015370;28;20040;-73
2021/07/23 04:36:52;;;;;;;15.43;7.22;;;16.80;99.90;;;;;;5014434;28;20050;-73
2021/07/23 04:39:18;;;;;;;14.60;7.13;;;16.90;99.90;;;;;;5015554;28;20068;-73
2021/07/23 04:41:44;;;;;;;12.30;7.38;;;16.90;99.90;;;;;;5015348;28;20038;-73
2021/07/23 04:44:10;;;;;;;12.73;7.28;;;17.00;99.90;;;;;;5015058;28;20042;-73
2021/07/23 04:46:35;;;;;;;13.73;7.15;;;17.00;99.90;;;;;;5015251;28;20038;-73
2021/07/23 04:49:01;;;;;;;15.13;7.00;;;16.90;99.90;;;;;;5015293;28;20490;-73
2021/07/23 04:51:30;;;;;;;16.83;8.38;;;16.90;99.90;;;;;;4997435;28;20036;-73
2021/07/23 04:53:55;;;;;;;16.00;7.82;;;16.90;99.90;;;;;;5013611;28;20032;-74
2021/07/23 04:56:21;;;;;;;12.88;6.82;;;17.10;99.90;;;;;;5014856;28;20128;-74
2021/07/23 04:58:47;;;;;;;15.57;8.02;;;17.10;99.90;;;;;;5015016;28;20057;-73
2021/07/23 05:01:12;;;;;;;18.13;8.07;;;17.10;99.90;;;;;;5013997;28;20045;-74
2021/07/23 05:03:39;;;;;;;12.77;7.60;;;16.90;99.90;;;;;;5014679;28;20487;-74
2021/07/23 05:06:07;;;;;;;15.10;8.40;;;17.00;99.90;;;;;;5014638;28;20069;-73
2021/07/23 05:08:37;;;;;;;15.20;7.88;;;17.10;99.90;;;;;;5014968;28;20054;-73
2021/07/23 05:11:13;;;;;;;13.15;7.80;;;17.10;99.90;;;;;;5013479;28;20503;-73
2021/07/23 05:13:38;;;;;;;16.45;7.28;;;17.20;99.90;;;;;;5013802;28;20030;-74
2021/07/23 05:16:05;;;;;;;17.08;7.90;;;17.30;99.90;;;;;;5014450;28;20037;-74
2021/07/23 05:18:33;;;;;;;15.52;8.65;;;17.20;99.90;;;;;;5014684;28;20068;-73
2021/07/23 05:20:59;;;;;;;12.75;7.78;;;17.20;99.90;;;;;;5013166;28;20038;-74
2021/07/23 05:23:25;;;;;;;12.27;7.75;;;17.20;99.90;;;;;;5013151;28;20026;-74
2021/07/23 05:25:50;;;;;;;16.13;7.38;;;17.40;99.90;;;;;;5012830;28;20066;-74
2021/07/23 05:28:16;;;;;;;15.13;7.47;;;17.40;99.90;;;;;;5013111;28;20032;-72
2021/07/23 05:30:42;;;;;;;16.08;7.47;;;17.50;99.90;;;;;;5029157;28;20030;-72
2021/07/23 05:33:08;;;;;;;15.05;8.20;;;17.50;99.90;;;;;;5013025;28;20041;-72
2021/07/23 05:35:34;;;;;;;14.65;7.78;;;17.50;99.90;;;;;;5012682;28;20034;-73
2021/07/23 05:38:00;;;;;;;16.50;7.65;;;17.60;99.90;;;;;;5014056;28;20387;-72
2021/07/23 05:40:26;;;;;;;15.63;8.25;;;17.60;99.90;;;;;;5014275;28;20030;-73
2021/07/23 05:42:53;;;;;;;12.48;7.15;;;17.60;99.90;;;;;;5013305;28;20518;-72
2021/07/23 05:45:20;;;;;;;17.17;8.77;;;17.70;99.90;;;;;;5013815;28;20041;-73
2021/07/23 05:47:46;;;;;;;14.52;7.15;;;17.70;99.90;;;;;;5013882;28;20057;-73
2021/07/23 05:50:12;;;;;;;14.75;7.10;;;17.80;99.90;;;;;;5029194;28;20030;-73
2021/07/23 05:52:38;;;;;;;17.30;7.50;;;17.80;99.90;;;;;;5013835;28;20038;-73
2021/07/23 05:55:04;;;;;;;12.38;7.03;;;17.90;99.90;;;;;;5012712;28;20042;-72
2021/07/23 05:57:30;;;;;;;16.95;7.88;;;17.90;99.90;;;;;;5013643;28;20044;-72
2021/07/23 05:59:56;;;;;;;12.35;7.40;;;18.00;99.90;;;;;;5013754;28;20042;-73
2021/07/23 06:02:21;;;;;;;15.93;6.97;;;18.00;99.90;;;;;;5013792;28;20458;-73
2021/07/23 06:04:47;;;;;;;13.32;6.28;;;18.10;99.90;;;;;;5012062;28;20041;-73
2021/07/23 06:07:14;;;;;;;11.18;6.82;;;18.10;99.90;;;;;;5013943;28;20042;-73
2021/07/23 06:09:40;;;;;;;15.30;6.78;;;18.20;99.90;;;;;;5013619;28;20052;-73
2021/07/23 06:12:06;;;;;;;14.35;7.65;;;18.20;99.90;;;;;;5012146;28;20121;-73
2021/07/23 06:14:33;;;;;;;12.70;7.15;;;18.30;99.90;;;;;;5013615;28;20038;-73
2021/07/23 06:16:59;;;;;;;12.73;7.03;;;18.30;99.90;;;;;;5013674;28;20060;-73
2021/07/23 06:19:25;;;;;;;14.57;7.22;;;18.30;99.90;;;;;;5012131;28;20073;-73
2021/07/23 06:21:51;;;;;;;12.52;6.65;;;18.40;99.90;;;;;;5012987;28;20040;-73
2021/07/23 06:24:16;;;;;;;12.10;6.82;;;18.50;99.90;;;;;;4995558;28;20029;-73
2021/07/23 06:26:43;;;;;;;14.18;8.40;;;18.50;99.90;;;;;;5011992;28;20048;-73
2021/07/23 06:29:09;;;;;;;11.85;6.80;;;18.50;99.90;;;;;;5013412;28;20033;-73
2021/07/23 06:31:35;;;;;;;12.38;6.70;;;18.70;99.90;;;;;;5011961;28;20479;-73
2021/07/23 06:34:04;;;;;;;29.50;18.30;;;18.80;99.90;;;;;;5012183;28;20494;-73
2021/07/23 06:36:34;;;;;;;13.57;7.38;;;18.90;99.90;;;;;;5011885;28;20509;-73
2021/07/23 06:39:00;;;;;;;13.70;6.85;;;18.80;99.90;;;;;;5011813;28;20034;-73
2021/07/23 06:41:26;;;;;;;12.45;7.03;;;18.80;99.90;;;;;;5012853;28;20029;-73
2021/07/23 06:43:51;;;;;;;12.13;6.88;;;18.80;99.90;;;;;;4995020;28;20387;-74
2021/07/23 06:46:17;;;;;;;11.43;6.82;;;19.00;99.90;;;;;;5012970;28;20117;-74
2021/07/23 06:48:43;;;;;;;15.10;6.45;;;19.20;99.90;;;;;;5012827;28;20486;-74
2021/07/23 06:51:09;;;;;;;10.60;6.10;;;19.20;99.90;;;;;;5012891;28;20030;-74
2021/07/23 06:53:34;;;;;;;18.60;10.40;;;19.30;99.90;;;;;;5011907;28;20113;-74
2021/07/23 06:56:03;;;;;;;13.75;7.00;;;19.40;99.90;;;;;;5011649;28;20040;-77
2021/07/23 06:58:29;;;;;;;17.02;6.60;;;19.50;99.90;;;;;;5013032;28;20030;-76
2021/07/23 07:00:55;;;;;;;12.10;6.22;;;19.50;99.90;;;;;;5011631;28;20037;-77
2021/07/23 07:03:21;;;;;;;9.68;6.15;;;19.50;99.90;;;;;;5012775;28;20038;-76
2021/07/23 07:05:50;;;;;;;16.27;6.50;;;19.60;99.90;;;;;;5011657;28;20058;-76
2021/07/23 07:08:17;;;;;;;12.82;6.70;;;19.90;99.90;;;;;;5012937;28;20045;-76
2021/07/23 07:10:43;;;;;;;13.82;6.68;;;20.00;99.90;;;;;;5012442;28;20113;-76
2021/07/23 07:13:09;;;;;;;14.65;6.45;;;20.00;99.90;;;;;;5011334;28;20455;-76
2021/07/23 07:15:35;;;;;;;13.70;5.97;;;20.20;99.90;;;;;;5012474;28;20080;-76
2021/07/23 07:18:02;;;;;;;12.00;5.80;;;20.20;99.90;;;;;;5012500;28;20117;-77
2021/07/23 07:20:31;;;;;;;9.35;6.30;;;20.30;99.90;;;;;;5011059;28;20045;-76
2021/07/23 07:22:57;;;;;;;12.82;5.95;;;20.10;99.90;;;;;;5012479;28;20113;-77
2021/07/23 07:25:24;;;;;;;11.07;6.32;;;20.20;99.90;;;;;;4994588;28;20128;-76
2021/07/23 07:27:50;;;;;;;11.95;6.38;;;20.10;99.90;;;;;;5011053;28;20034;-76
2021/07/23 07:30:16;;;;;;;10.48;5.63;;;20.30;99.90;;;;;;5011085;28;20556;-76
2021/07/23 07:32:42;;;;;;;11.10;5.82;;;20.50;99.90;;;;;;5012494;28;20034;-76
2021/07/23 07:35:09;;;;;;;9.77;5.72;;;20.60;99.90;;;;;;5012361;28;20340;-76
2021/07/23 07:37:35;;;;;;;11.27;5.53;;;20.70;99.90;;;;;;5012189;28;20037;-76
2021/07/23 07:40:01;;;;;;;11.45;6.65;;;20.90;99.90;;;;;;5011102;28;20026;-76
2021/07/23 07:42:27;;;;;;;11.07;5.80;;;21.00;99.90;;;;;;5027494;28;20168;-76
2021/07/23 07:44:52;;;;;;;9.23;5.55;;;21.10;99.90;;;;;;5010713;28;20046;-76
2021/07/23 07:47:18;;;;;;;13.38;6.50;;;21.20;99.90;;;;;;5012289;28;20506;-79
2021/07/23 07:49:44;;;;;;;11.73;6.10;;;21.30;99.90;;;;;;5027115;28;20045;-79
2021/07/23 07:52:10;;;;;;;9.15;5.35;;;21.20;99.90;;;;;;5012026;28;20030;-79
2021/07/23 07:54:35;;;;;;;11.07;5.95;;;21.30;99.90;;;;;;4994541;28;20040;-79
2021/07/23 07:57:10;;;;;;;11.25;6.20;;;21.40;99.90;;;;;;5012404;28;20034;-80
2021/07/23 07:59:37;;;;;;;10.52;6.40;;;21.50;99.90;;;;;;5012269;28;20057;-79
2021/07/23 08:02:09;;;;;;;13.02;5.97;;;21.50;99.90;;;;;;5011962;28;20026;-79
2021/07/23 08:04:36;;;;;;;11.80;5.90;;;21.40;99.90;;;;;;5012272;28;20029;-79
2021/07/23 08:07:09;;;;;;;11.55;6.65;;;21.60;99.90;;;;;;5014539;28;20117;-79
2021/07/23 08:09:57;;;;;;;10.73;5.50;;;21.80;99.90;;;;;;4998986;28;20034;-79
2021/07/23 08:12:23;;;;;;;11.52;6.03;;;21.90;99.90;;;;;;5014961;28;20026;-79
2021/07/23 08:14:49;;;;;;;10.85;6.38;;;22.10;99.90;;;;;;5015009;28;20096;-79
2021/07/23 08:17:15;;;;;;;10.65;5.50;;;22.10;99.90;;;;;;5014915;28;20034;-79
2021/07/23 08:19:41;;;;;;;13.32;6.57;;;22.10;99.90;;;;;;5015834;28;20124;-79
2021/07/23 08:22:08;;;;;;;12.77;5.78;;;22.20;99.90;;;;;;5014599;28;20069;-79
2021/07/23 08:24:34;;;;;;;12.30;6.28;;;22.10;99.90;;;;;;5014639;28;20034;-79
2021/07/23 08:27:00;;;;;;;12.82;6.10;;;22.30;99.90;;;;;;5014326;28;20093;-79
2021/07/23 08:29:26;;;;;;;13.05;6.20;;;22.50;99.90;;;;;;5014662;28;20066;-79
2021/07/23 08:31:52;;;;;;;12.70;6.13;;;22.70;99.90;;;;;;5015770;28;20053;-81
2021/07/23 08:34:18;;;;;;;10.88;6.55;;;22.90;99.90;;;;;;5015129;28;20056;-80
2021/07/23 08:36:44;;;;;;;12.23;5.90;;;23.10;99.90;;;;;;5030686;28;20041;-80
2021/07/23 08:39:09;;;;;;;11.95;5.60;;;23.00;99.90;;;;;;5015529;28;20029;-80
2021/07/23 08:41:36;;;;;;;10.30;5.82;;;23.20;99.90;;;;;;5015491;28;20387;-80
2021/07/23 08:44:03;;;;;;;11.10;7.00;;;23.30;99.90;;;;;;5013847;28;20049;-80
2021/07/23 08:46:31;;;;;;;15.02;5.85;;;23.20;99.90;;;;;;4997950;28;20117;-80
2021/07/23 08:48:57;;;;;;;10.70;6.32;;;23.20;99.90;;;;;;5014213;28;20092;-79
2021/07/23 08:51:23;;;;;;;9.77;6.00;;;23.10;99.90;;;;;;5013860;28;20038;-79
2021/07/23 08:53:49;;;;;;;12.13;6.63;;;23.20;99.90;;;;;;5015466;28;20026;-79
2021/07/23 08:56:15;;;;;;;10.15;5.88;;;23.40;99.90;;;;;;5015105;28;20479;-79
2021/07/23 08:58:40;;;;;;;10.98;6.40;;;23.40;99.90;;;;;;5013954;28;20045;-79
2021/07/23 09:01:06;;;;;;;12.73;7.25;;;23.70;99.90;;;;;;5013652;28;20033;-80
2021/07/23 09:03:34;;;;;;;11.55;6.85;;;23.70;99.90;;;;;;5030709;28;20108;-80
2021/07/23 09:06:15;;;;;;;11.80;6.45;;;23.70;99.90;;;;;;5014784;28;20505;-80
2021/07/23 09:08:50;;;;;;;11.63;6.22;;;23.70;99.90;;;;;;5015037;28;20046;-79
2021/07/23 09:11:28;;;;;;;10.20;6.28;;;23.80;99.90;;;;;;5014643;28;20030;-79
2021/07/23 09:14:27;;;;;;;9.93;5.97;;;24.10;99.90;;;;;;5013559;28;20030;-79
2021/07/23 09:16:56;;;;;;;12.02;6.93;;;24.30;99.90;;;;;;5012207;28;20049;-80
2021/07/23 09:19:22;;;;;;;10.77;6.20;;;24.30;99.30;;;;;;5013402;28;20030;-79
2021/07/23 09:21:56;;;;;;;10.23;5.50;;;24.40;98.60;;;;;;4997033;28;20549;-80
2021/07/23 09:24:24;;;;;;;11.35;5.78;;;24.40;98.70;;;;;;5013057;28;20050;-80
2021/07/23 09:26:51;;;;;;;10.95;5.63;;;24.50;98.80;;;;;;5013747;28;20040;-79
2021/07/23 09:29:17;;;;;;;10.00;5.82;;;24.80;96.80;;;;;;5014755;28;20034;-79
2021/07/23 09:32:08;;;;;;;8.68;5.35;;;24.90;95.10;;;;;;5029606;28;20426;-79
2021/07/23 09:34:34;;;;;;;10.27;5.85;;;25.30;95.20;;;;;;5013195;28;20065;-79
2021/07/23 09:37:11;;;;;;;17.38;5.70;;;25.30;94.00;;;;;;5014627;28;20063;-79
2021/07/23 09:39:40;;;;;;;12.52;5.60;;;25.40;93.80;;;;;;5014624;28;20176;-79
2021/07/23 09:42:06;;;;;;;7.78;4.88;;;25.50;93.70;;;;;;5013028;28;20074;-79
2021/07/23 09:44:32;;;;;;;9.43;5.60;;;25.70;93.20;;;;;;5013149;28;20042;-79
2021/07/23 09:46:58;;;;;;;6.40;4.38;;;25.50;93.30;;;;;;5012933;28;20034;-80
2021/07/23 09:49:29;;;;;;;7.63;5.05;;;25.70;93.30;;;;;;5014158;28;20022;-79
2021/07/23 09:52:02;;;;;;;11.70;5.65;;;25.80;92.90;;;;;;5013049;28;20061;-79
2021/07/23 09:54:28;;;;;;;7.60;4.82;;;25.50;93.00;;;;;;5012850;28;20026;-80
2021/07/23 09:56:54;;;;;;;8.57;4.78;;;25.50;92.60;;;;;;5012889;28;20030;-80
2021/07/23 09:59:22;;;;;;;14.07;5.75;;;25.50;91.50;;;;;;5013021;28;20037;-80
2021/07/23 10:01:55;;;;;;;7.70;5.05;;;25.60;91.80;;;;;;5013140;28;20038;-80
2021/07/23 10:04:32;;;;;;;7.88;4.82;;;25.60;92.20;;;;;;5012990;28;20467;-80
2021/07/23 10:07:07;;;;;;;7.63;4.70;;;25.80;92.20;;;;;;5012864;28;20038;-80
2021/07/23 10:09:38;;;;;;;9.75;4.95;;;26.10;92.00;;;;;;5012613;28;20030;-80
2021/07/23 10:12:09;;;;;;;10.88;4.50;;;26.30;91.20;;;;;;5012548;28;20144;-80
2021/07/23 10:14:40;;;;;;;12.02;6.50;;;26.50;89.30;;;;;;5012424;28;20418;-80
2021/07/23 10:17:08;;;;;;;9.13;5.65;;;26.50;89.80;;;;;;5012261;28;20052;-80
2021/07/23 10:19:36;;;;;;;9.70;5.28;;;26.50;90.30;;;;;;5013639;28;20444;-80
2021/07/23 10:22:03;;;;;;;7.82;4.82;;;26.60;90.20;;;;;;5013561;28;20037;-80
2021/07/23 10:24:35;;;;;;;9.48;5.07;;;26.50;90.20;;;;;;5012297;28;20099;-80
2021/07/23 10:27:09;;;;;;;7.18;5.15;;;27.00;90.30;;;;;;5012342;28;20032;-80
2021/07/23 10:29:44;;;;;;;7.68;5.03;;;27.30;88.00;;;;;;5011910;28;20044;-80
2021/07/23 10:32:30;;;;;;;8.88;5.07;;;27.30;87.00;;;;;;5013077;28;20056;-81
2021/07/23 10:35:25;;;;;;;9.00;5.30;;;27.20;89.00;;;;;;5013534;28;20507;-79
2021/07/23 10:37:53;;;;;;;7.88;5.20;;;27.30;89.00;;;;;;5028225;28;20034;-79
2021/07/23 10:40:22;;;;;;;9.38;5.80;;;27.70;88.90;;;;;;5013045;28;20034;-78
2021/07/23 10:42:49;;;;;;;11.35;5.50;;;27.60;88.20;;;;;;5012146;28;20030;-80
2021/07/23 10:45:41;;;;;;;10.20;5.75;;;27.50;88.80;;;;;;5012781;28;20092;-78
2021/07/23 10:48:07;;;;;;;8.65;5.78;;;27.40;88.60;;;;;;5012862;28;20040;-78
2021/07/23 10:50:40;;;;;;;7.88;5.45;;;27.40;87.40;;;;;;5011810;28;20145;-79
2021/07/23 10:53:35;;;;;;;8.13;5.05;;;27.20;86.90;;;;;;5013078;28;20437;-79
2021/07/23 10:56:01;;;;;;;9.73;6.10;;;27.30;86.50;;;;;;5027752;28;20045;-79
2021/07/23 10:58:27;;;;;;;7.80;5.47;;;27.30;88.60;;;;;;5011802;28;20030;-79
2021/07/23 11:00:55;;;;;;;10.02;6.38;;;27.40;86.90;;;;;;5012635;28;20109;-79
2021/07/23 11:03:37;;;;;;;12.20;6.45;;;27.80;86.80;;;;;;5011606;28;20038;-79
2021/07/23 11:06:15;;;;;;;10.20;5.50;;;28.10;88.70;;;;;;5012401;28;20037;-80
2021/07/23 11:08:52;;;;;;;10.25;6.22;;;28.20;87.10;;;;;;5012858;28;20437;-80
2021/07/23 11:11:27;;;;;;;9.18;5.82;;;28.20;84.20;;;;;;5012929;28;20105;-80
2021/07/23 11:13:53;;;;;;;9.02;5.40;;;28.30;84.00;;;;;;5012885;28;20044;-80
2021/07/23 11:16:22;;;;;;;9.95;5.68;;;28.60;83.60;;;;;;5012818;28;20037;-78
2021/07/23 11:18:59;;;;;;;9.85;5.85;;;28.60;82.20;;;;;;5012837;28;20113;-79
2021/07/23 11:21:36;;;;;;;7.88;5.50;;;28.60;85.10;;;;;;5012896;28;20147;-80
2021/07/23 11:24:09;;;;;;;9.15;5.90;;;28.90;84.80;;;;;;4995265;28;20033;-79
2021/07/23 11:26:36;;;;;;;8.95;5.80;;;29.20;85.00;;;;;;5011573;28;20041;-79
2021/07/23 11:29:02;;;;;;;9.35;5.50;;;29.30;83.10;;;;;;5012804;28;20025;-79
2021/07/23 11:31:39;;;;;;;7.70;5.57;;;28.90;83.10;;;;;;5012511;28;20125;-80
2021/07/23 11:34:22;;;;;;;9.00;5.50;;;29.00;82.80;;;;;;5012548;28;20033;-79
2021/07/23 11:36:53;;;;;;;7.72;5.70;;;28.30;82.30;;;;;;5012777;28;20030;-79
2021/07/23 11:39:24;;;;;;;;;;;28.70;81.20;;;;;;5012773;28;20550;-79
2021/07/23 11:42:05;;;;;;;8.55;5.65;;;29.00;78.10;;;;;;5012424;28;19923;-79
2021/07/23 11:44:32;;;;;;;9.05;5.32;;;29.50;78.10;;;;;;5011030;28;20046;-79
2021/07/23 11:46:59;;;;;;;7.70;5.45;;;29.50;77.90;;;;;;5012265;28;20123;-79
2021/07/23 11:49:32;;;;;;;6.72;4.80;;;29.30;79.50;;;;;;5012275;28;20022;-79
2021/07/23 11:51:58;;;;;;;9.20;6.28;;;29.80;79.30;;;;;;5011061;28;20076;-79
2021/07/23 11:54:26;;;;;;;10.63;5.80;;;30.00;77.00;;;;;;5012406;28;20030;-79
2021/07/23 11:56:52;;;;;;;8.45;5.55;;;30.10;78.00;;;;;;5010863;28;20034;-79
2021/07/23 11:59:18;;;;;;;10.23;6.07;;;30.10;77.10;;;;;;5012254;28;20034;-79
2021/07/23 12:01:44;;;;;;;8.65;5.45;;;29.30;76.60;;;;;;5012371;28;20109;-79
2021/07/23 12:04:10;;;;;;;8.60;5.63;;;29.20;80.50;;;;;;5012007;28;20399;-79
2021/07/23 12:06:39;;;;;;;10.93;6.35;;;30.00;76.20;;;;;;5012070;28;20046;-79
2021/07/23 12:09:09;;;;;;;9.80;6.40;;;29.80;74.90;;;;;;5010850;28;20026;-79
2021/07/23 12:11:36;;;;;;;7.35;4.80;;;29.90;75.30;;;;;;5012160;28;20292;-79
2021/07/23 12:14:10;;;;;;;8.48;5.70;;;29.50;76.00;;;;;;5010686;28;20447;-78
2021/07/23 12:16:39;;;;;;;8.02;5.50;;;29.20;78.80;;;;;;5012408;28;20125;-79
2021/07/23 12:19:09;;;;;;;8.80;5.82;;;29.00;78.30;;;;;;5010705;28;20080;-79
2021/07/23 12:21:37;;;;;;;7.43;5.25;;;29.30;77.20;;;;;;5011947;28;20540;-79
2021/07/23 12:24:08;;;;;;;8.77;5.68;;;29.80;76.40;;;;;;4994394;28;20042;-79
2021/07/23 12:26:39;;;;;;;8.88;5.50;;;29.90;76.20;;;;;;5012038;28;20430;-79
2021/07/23 12:29:09;;;;;;;9.60;5.80;;;30.20;76.40;;;;;;5012169;28;20044;-79
2021/07/23 12:31:37;;;;;;;7.80;5.10;;;29.50;73.30;;;;;;5012109;28;20037;-79
2021/07/23 12:34:19;;;;;;;11.93;6.38;;;30.10;75.90;;;;;;5010347;28;20034;-78
2021/07/23 12:36:53;;;;;;;7.97;5.47;;;30.10;73.50;;;;;;5012099;28;20033;-77
2021/07/23 12:39:22;;;;;;;11.25;5.75;;;29.90;74.00;;;;;;5011996;28;20038;-77
2021/07/23 12:41:49;;;;;;;10.20;5.57;;;30.30;75.80;;;;;;5011402;28;20590;-78